sensor_id;sensor_type;location;lat;lon;timestamp;P1;durP1;ratioP1;P2;durP2;ratioP2
70342;SDS011;57767;42.068;24.752;2023-02-13T00:00:07;16.88;;;9.70;;
70342;SDS011;57767;42.068;24.752;2023-02-13T00:01:13;19.15;;;11.30;;
70342;SDS011;57767;42.068;24.752;2023-02-13T00:02:16;16.13;;;10.68;;
70342;SDS011;57767;42.068;24.752;2023-02-13T00:03:18;17.35;;;10.52;;
70342;SDS011;57767;42.068;24.752;2023-02-13T00:04:20;18.70;;;12.25;;
70342;SDS011;57767;42.068;24.752;2023-02-13T00:05:21;17.70;;;11.20;;
70342;SDS011;57767;42.068;24.752;2023-02-13T00:06:23;17.13;;;11.57;;
70342;SDS011;57767;42.068;24.752;2023-02-13T00:07:25;18.80;;;10.77;;
70342;SDS011;57767;42.068;24.752;2023-02-13T00:08:27;18.17;;;10.60;;
70342;SDS011;57767;42.068;24.752;2023-02-13T00:09:28;19.05;;;10.43;;
70342;SDS011;57767;42.068;24.752;2023-02-13T00:10:30;20.10;;;11.00;;
70342;SDS011;57767;42.068;24.752;2023-02-13T00:11:32;20.85;;;11.77;;
70342;SDS011;57767;42.068;24.752;2023-02-13T00:12:34;17.48;;;10.27;;
70342;SDS011;57767;42.068;24.752;2023-02-13T00:13:36;21.13;;;10.82;;
70342;SDS011;57767;42.068;24.752;2023-02-13T00:14:38;15.45;;;10.38;;
70342;SDS011;57767;42.068;24.752;2023-02-13T00:15:40;20.55;;;12.85;;
70342;SDS011;57767;42.068;24.752;2023-02-13T00:16:41;19.17;;;9.50;;
70342;SDS011;57767;42.068;24.752;2023-02-13T00:17:43;17.30;;;10.70;;
70342;SDS011;57767;42.068;24.752;2023-02-13T00:18:45;21.88;;;12.95;;
70342;SDS011;57767;42.068;24.752;2023-02-13T00:19:47;23.20;;;10.75;;
70342;SDS011;57767;42.068;24.752;2023-02-13T00:22:03;17.13;;;10.15;;
70342;SDS011;57767;42.068;24.752;2023-02-13T00:23:05;21.85;;;11.02;;
70342;SDS011;57767;42.068;24.752;2023-02-13T00:24:07;19.85;;;10.93;;
70342;SDS011;57767;42.068;24.752;2023-02-13T00:25:09;19.60;;;10.27;;
70342;SDS011;57767;42.068;24.752;2023-02-13T00:26:12;18.88;;;11.15;;
70342;SDS011;57767;42.068;24.752;2023-02-13T00:27:15;18.05;;;10.18;;
70342;SDS011;57767;42.068;24.752;2023-02-13T00:28:17;18.65;;;10.98;;
70342;SDS011;57767;42.068;24.752;2023-02-13T00:29:19;16.92;;;10.57;;
70342;SDS011;57767;42.068;24.752;2023-02-13T00:30:21;18.30;;;11.73;;
70342;SDS011;57767;42.068;24.752;2023-02-13T00:31:23;16.80;;;9.57;;
70342;SDS011;57767;42.068;24.752;2023-02-13T00:32:25;28.10;;;11.50;;
70342;SDS011;57767;42.068;24.752;2023-02-13T00:33:27;20.20;;;11.43;;
70342;SDS011;57767;42.068;24.752;2023-02-13T00:34:28;15.55;;;11.07;;
70342;SDS011;57767;42.068;24.752;2023-02-13T00:35:30;18.92;;;11.40;;
70342;SDS011;57767;42.068;24.752;2023-02-13T00:36:32;17.17;;;10.77;;
70342;SDS011;57767;42.068;24.752;2023-02-13T00:37:34;17.73;;;10.10;;
70342;SDS011;57767;42.068;24.752;2023-02-13T00:38:36;17.58;;;10.30;;
70342;SDS011;57767;42.068;24.752;2023-02-13T00:39:39;19.40;;;9.95;;
70342;SDS011;57767;42.068;24.752;2023-02-13T00:40:40;17.83;;;10.15;;
70342;SDS011;57767;42.068;24.752;2023-02-13T00:41:42;17.38;;;10.10;;
70342;SDS011;57767;42.068;24.752;2023-02-13T00:42:44;18.70;;;11.02;;
70342;SDS011;57767;42.068;24.752;2023-02-13T00:43:46;20.38;;;11.15;;
70342;SDS011;57767;42.068;24.752;2023-02-13T00:44:48;19.75;;;10.65;;
70342;SDS011;57767;42.068;24.752;2023-02-13T00:45:50;18.75;;;10.43;;
70342;SDS011;57767;42.068;24.752;2023-02-13T00:46:52;20.00;;;10.60;;
70342;SDS011;57767;42.068;24.752;2023-02-13T00:47:53;21.50;;;10.73;;
70342;SDS011;57767;42.068;24.752;2023-02-13T00:48:55;18.55;;;10.48;;
70342;SDS011;57767;42.068;24.752;2023-02-13T00:49:57;17.13;;;9.82;;
70342;SDS011;57767;42.068;24.752;2023-02-13T00:50:59;18.33;;;10.18;;
70342;SDS011;57767;42.068;24.752;2023-02-13T00:52:01;14.20;;;9.30;;
70342;SDS011;57767;42.068;24.752;2023-02-13T00:53:03;16.65;;;9.32;;
70342;SDS011;57767;42.068;24.752;2023-02-13T00:54:05;17.08;;;9.80;;
70342;SDS011;57767;42.068;24.752;2023-02-13T00:55:06;16.38;;;10.15;;
70342;SDS011;57767;42.068;24.752;2023-02-13T00:56:08;14.45;;;8.85;;
70342;SDS011;57767;42.068;24.752;2023-02-13T00:57:10;16.65;;;9.70;;
70342;SDS011;57767;42.068;24.752;2023-02-13T00:58:12;17.42;;;9.15;;
70342;SDS011;57767;42.068;24.752;2023-02-13T00:59:14;16.30;;;9.68;;
70342;SDS011;57767;42.068;24.752;2023-02-13T01:00:18;13.45;;;8.80;;
70342;SDS011;57767;42.068;24.752;2023-02-13T01:01:20;14.75;;;9.32;;
70342;SDS011;57767;42.068;24.752;2023-02-13T01:02:21;16.10;;;8.50;;
70342;SDS011;57767;42.068;24.752;2023-02-13T01:03:23;16.05;;;9.05;;
70342;SDS011;57767;42.068;24.752;2023-02-13T01:04:26;16.50;;;8.15;;
70342;SDS011;57767;42.068;24.752;2023-02-13T01:05:27;14.80;;;9.75;;
70342;SDS011;57767;42.068;24.752;2023-02-13T01:06:29;13.80;;;9.07;;
70342;SDS011;57767;42.068;24.752;2023-02-13T01:07:31;16.80;;;9.27;;
70342;SDS011;57767;42.068;24.752;2023-02-13T01:08:33;19.15;;;8.55;;
70342;SDS011;57767;42.068;24.752;2023-02-13T01:09:35;12.15;;;7.57;;
70342;SDS011;57767;42.068;24.752;2023-02-13T01:10:37;13.48;;;8.40;;
70342;SDS011;57767;42.068;24.752;2023-02-13T01:11:40;16.17;;;9.38;;
70342;SDS011;57767;42.068;24.752;2023-02-13T01:12:42;17.60;;;8.75;;
70342;SDS011;57767;42.068;24.752;2023-02-13T01:13:44;14.98;;;8.82;;
70342;SDS011;57767;42.068;24.752;2023-02-13T01:14:46;16.10;;;8.73;;
70342;SDS011;57767;42.068;24.752;2023-02-13T01:15:48;15.85;;;8.57;;
70342;SDS011;57767;42.068;24.752;2023-02-13T01:16:51;13.48;;;8.30;;
70342;SDS011;57767;42.068;24.752;2023-02-13T01:17:53;14.65;;;8.55;;
70342;SDS011;57767;42.068;24.752;2023-02-13T01:18:57;14.88;;;8.98;;
70342;SDS011;57767;42.068;24.752;2023-02-13T01:19:59;13.40;;;8.52;;
70342;SDS011;57767;42.068;24.752;2023-02-13T01:21:02;13.68;;;8.07;;
70342;SDS011;57767;42.068;24.752;2023-02-13T01:22:06;11.63;;;7.47;;
70342;SDS011;57767;42.068;24.752;2023-02-13T01:23:09;13.20;;;8.10;;
70342;SDS011;57767;42.068;24.752;2023-02-13T01:24:11;14.05;;;8.15;;
70342;SDS011;57767;42.068;24.752;2023-02-13T01:25:13;11.10;;;7.07;;
70342;SDS011;57767;42.068;24.752;2023-02-13T01:26:17;12.05;;;7.38;;
70342;SDS011;57767;42.068;24.752;2023-02-13T01:27:24;12.80;;;7.72;;
70342;SDS011;57767;42.068;24.752;2023-02-13T01:28:26;13.77;;;7.70;;
70342;SDS011;57767;42.068;24.752;2023-02-13T01:29:28;11.48;;;6.65;;
70342;SDS011;57767;42.068;24.752;2023-02-13T01:30:30;12.57;;;7.30;;
70342;SDS011;57767;42.068;24.752;2023-02-13T01:31:32;11.68;;;7.10;;
70342;SDS011;57767;42.068;24.752;2023-02-13T01:32:34;11.52;;;7.95;;
70342;SDS011;57767;42.068;24.752;2023-02-13T01:33:36;12.30;;;7.57;;
70342;SDS011;57767;42.068;24.752;2023-02-13T01:34:38;11.25;;;7.38;;
70342;SDS011;57767;42.068;24.752;2023-02-13T01:35:40;12.10;;;7.65;;
70342;SDS011;57767;42.068;24.752;2023-02-13T01:36:41;12.25;;;6.93;;
70342;SDS011;57767;42.068;24.752;2023-02-13T01:37:43;13.25;;;7.57;;
70342;SDS011;57767;42.068;24.752;2023-02-13T01:38:45;11.57;;;7.75;;
70342;SDS011;57767;42.068;24.752;2023-02-13T01:39:47;14.65;;;7.97;;
70342;SDS011;57767;42.068;24.752;2023-02-13T01:40:51;16.85;;;9.13;;
70342;SDS011;57767;42.068;24.752;2023-02-13T01:41:54;14.40;;;10.10;;
70342;SDS011;57767;42.068;24.752;2023-02-13T01:42:56;19.55;;;10.48;;
70342;SDS011;57767;42.068;24.752;2023-02-13T01:43:58;14.02;;;9.45;;
70342;SDS011;57767;42.068;24.752;2023-02-13T01:45:03;15.50;;;9.75;;
70342;SDS011;57767;42.068;24.752;2023-02-13T01:46:30;15.88;;;10.35;;
70342;SDS011;57767;42.068;24.752;2023-02-13T01:47:43;18.20;;;9.88;;
70342;SDS011;57767;42.068;24.752;2023-02-13T01:48:48;19.88;;;11.75;;
70342;SDS011;57767;42.068;24.752;2023-02-13T01:50:04;18.65;;;12.52;;
70342;SDS011;57767;42.068;24.752;2023-02-13T01:51:12;18.52;;;12.07;;
70342;SDS011;57767;42.068;24.752;2023-02-13T01:52:19;20.25;;;12.35;;
70342;SDS011;57767;42.068;24.752;2023-02-13T01:54:26;24.33;;;14.50;;
70342;SDS011;57767;42.068;24.752;2023-02-13T01:55:32;22.13;;;12.73;;
70342;SDS011;57767;42.068;24.752;2023-02-13T01:56:39;25.40;;;17.02;;
70342;SDS011;57767;42.068;24.752;2023-02-13T01:57:46;22.00;;;13.27;;
70342;SDS011;57767;42.068;24.752;2023-02-13T01:58:54;27.45;;;16.80;;
70342;SDS011;57767;42.068;24.752;2023-02-13T02:00:05;26.90;;;17.90;;
70342;SDS011;57767;42.068;24.752;2023-02-13T02:01:09;27.80;;;14.90;;
70342;SDS011;57767;42.068;24.752;2023-02-13T02:02:12;28.35;;;15.88;;
70342;SDS011;57767;42.068;24.752;2023-02-13T02:03:16;28.15;;;16.60;;
70342;SDS011;57767;42.068;24.752;2023-02-13T02:04:25;26.02;;;16.90;;
70342;SDS011;57767;42.068;24.752;2023-02-13T02:05:39;31.17;;;18.33;;
70342;SDS011;57767;42.068;24.752;2023-02-13T02:06:48;32.17;;;18.75;;
70342;SDS011;57767;42.068;24.752;2023-02-13T02:07:56;34.88;;;20.95;;
70342;SDS011;57767;42.068;24.752;2023-02-13T02:09:02;32.13;;;18.75;;
70342;SDS011;57767;42.068;24.752;2023-02-13T02:10:09;29.60;;;18.38;;
70342;SDS011;57767;42.068;24.752;2023-02-13T02:11:51;33.75;;;18.13;;
70342;SDS011;57767;42.068;24.752;2023-02-13T02:13:04;30.52;;;18.25;;
70342;SDS011;57767;42.068;24.752;2023-02-13T02:14:20;36.70;;;21.63;;
70342;SDS011;57767;42.068;24.752;2023-02-13T02:15:22;33.92;;;19.02;;
70342;SDS011;57767;42.068;24.752;2023-02-13T02:16:24;33.00;;;19.58;;
70342;SDS011;57767;42.068;24.752;2023-02-13T02:17:26;34.80;;;18.98;;
70342;SDS011;57767;42.068;24.752;2023-02-13T02:18:28;33.10;;;21.67;;
70342;SDS011;57767;42.068;24.752;2023-02-13T02:28:15;43.85;;;26.50;;
70342;SDS011;57767;42.068;24.752;2023-02-13T02:29:48;47.53;;;28.65;;
70342;SDS011;57767;42.068;24.752;2023-02-13T02:32:41;63.33;;;38.78;;
70342;SDS011;57767;42.068;24.752;2023-02-13T02:34:45;133.48;;;59.92;;
70342;SDS011;57767;42.068;24.752;2023-02-13T02:40:09;59.30;;;37.47;;
70342;SDS011;57767;42.068;24.752;2023-02-13T02:44:14;68.00;;;39.40;;
70342;SDS011;57767;42.068;24.752;2023-02-13T02:46:28;64.18;;;39.22;;
70342;SDS011;57767;42.068;24.752;2023-02-13T02:49:19;63.22;;;36.75;;
70342;SDS011;57767;42.068;24.752;2023-02-13T02:51:50;62.15;;;36.85;;
70342;SDS011;57767;42.068;24.752;2023-02-13T02:52:56;63.80;;;37.88;;
70342;SDS011;57767;42.068;24.752;2023-02-13T02:54:07;61.63;;;38.22;;
70342;SDS011;57767;42.068;24.752;2023-02-13T02:55:37;66.43;;;37.17;;
70342;SDS011;57767;42.068;24.752;2023-02-13T02:56:57;68.32;;;38.47;;
70342;SDS011;57767;42.068;24.752;2023-02-13T02:59:55;86.22;;;40.90;;
70342;SDS011;57767;42.068;24.752;2023-02-13T03:01:18;89.93;;;42.03;;
70342;SDS011;57767;42.068;24.752;2023-02-13T03:02:42;86.72;;;43.22;;
70342;SDS011;57767;42.068;24.752;2023-02-13T03:04:03;98.03;;;42.95;;
70342;SDS011;57767;42.068;24.752;2023-02-13T03:05:28;85.43;;;40.47;;
70342;SDS011;57767;42.068;24.752;2023-02-13T03:06:55;70.35;;;40.38;;
70342;SDS011;57767;42.068;24.752;2023-02-13T03:08:01;67.93;;;40.22;;
70342;SDS011;57767;42.068;24.752;2023-02-13T03:09:05;71.70;;;40.10;;
70342;SDS011;57767;42.068;24.752;2023-02-13T03:10:32;69.20;;;37.28;;
70342;SDS011;57767;42.068;24.752;2023-02-13T03:11:54;75.65;;;40.20;;
70342;SDS011;57767;42.068;24.752;2023-02-13T03:13:16;75.75;;;40.47;;
70342;SDS011;57767;42.068;24.752;2023-02-13T03:14:44;80.90;;;39.58;;
70342;SDS011;57767;42.068;24.752;2023-02-13T03:15:47;73.68;;;41.05;;
70342;SDS011;57767;42.068;24.752;2023-02-13T03:17:10;69.75;;;37.92;;
70342;SDS011;57767;42.068;24.752;2023-02-13T03:18:34;75.50;;;41.00;;
70342;SDS011;57767;42.068;24.752;2023-02-13T03:22:05;68.38;;;38.40;;
70342;SDS011;57767;42.068;24.752;2023-02-13T03:23:31;65.82;;;35.65;;
70342;SDS011;57767;42.068;24.752;2023-02-13T03:33:57;61.25;;;34.70;;
70342;SDS011;57767;42.068;24.752;2023-02-13T03:35:15;63.38;;;36.58;;
70342;SDS011;57767;42.068;24.752;2023-02-13T03:38:09;63.20;;;35.78;;
70342;SDS011;57767;42.068;24.752;2023-02-13T03:40:48;63.38;;;36.72;;
70342;SDS011;57767;42.068;24.752;2023-02-13T03:42:35;56.50;;;33.22;;
70342;SDS011;57767;42.068;24.752;2023-02-13T03:46:38;54.08;;;33.00;;
70342;SDS011;57767;42.068;24.752;2023-02-13T03:47:43;55.58;;;34.30;;
70342;SDS011;57767;42.068;24.752;2023-02-13T03:48:47;57.22;;;35.15;;
70342;SDS011;57767;42.068;24.752;2023-02-13T03:50:08;59.78;;;34.13;;
70342;SDS011;57767;42.068;24.752;2023-02-13T03:51:15;60.58;;;36.55;;
70342;SDS011;57767;42.068;24.752;2023-02-13T03:53:59;55.25;;;32.83;;
70342;SDS011;57767;42.068;24.752;2023-02-13T03:56:31;56.38;;;34.28;;
70342;SDS011;57767;42.068;24.752;2023-02-13T03:57:55;58.70;;;35.42;;
70342;SDS011;57767;42.068;24.752;2023-02-13T03:59:21;60.72;;;35.45;;
70342;SDS011;57767;42.068;24.752;2023-02-13T04:00:32;57.38;;;35.55;;
70342;SDS011;57767;42.068;24.752;2023-02-13T04:01:40;60.63;;;35.73;;
70342;SDS011;57767;42.068;24.752;2023-02-13T04:04:29;57.80;;;35.20;;
70342;SDS011;57767;42.068;24.752;2023-02-13T04:05:38;57.28;;;33.20;;
70342;SDS011;57767;42.068;24.752;2023-02-13T04:06:48;51.38;;;32.58;;
70342;SDS011;57767;42.068;24.752;2023-02-13T04:07:54;51.55;;;33.17;;
70342;SDS011;57767;42.068;24.752;2023-02-13T04:08:56;43.75;;;26.75;;
70342;SDS011;57767;42.068;24.752;2023-02-13T04:09:59;42.80;;;26.63;;
70342;SDS011;57767;42.068;24.752;2023-02-13T04:14:13;34.47;;;21.63;;
70342;SDS011;57767;42.068;24.752;2023-02-13T04:15:33;32.58;;;19.60;;
70342;SDS011;57767;42.068;24.752;2023-02-13T04:16:40;27.20;;;18.15;;
70342;SDS011;57767;42.068;24.752;2023-02-13T04:17:47;33.97;;;20.50;;
70342;SDS011;57767;42.068;24.752;2023-02-13T04:18:55;33.55;;;20.55;;
70342;SDS011;57767;42.068;24.752;2023-02-13T04:19:58;31.95;;;20.17;;
70342;SDS011;57767;42.068;24.752;2023-02-13T04:21:03;29.63;;;18.80;;
70342;SDS011;57767;42.068;24.752;2023-02-13T04:22:06;29.40;;;19.33;;
70342;SDS011;57767;42.068;24.752;2023-02-13T04:23:09;29.77;;;18.33;;
70342;SDS011;57767;42.068;24.752;2023-02-13T04:24:12;30.13;;;18.50;;
70342;SDS011;57767;42.068;24.752;2023-02-13T04:25:14;29.40;;;19.55;;
70342;SDS011;57767;42.068;24.752;2023-02-13T04:26:18;27.00;;;17.98;;
70342;SDS011;57767;42.068;24.752;2023-02-13T04:27:22;30.27;;;18.58;;
70342;SDS011;57767;42.068;24.752;2023-02-13T04:28:27;30.58;;;19.83;;
70342;SDS011;57767;42.068;24.752;2023-02-13T04:29:30;28.40;;;18.40;;
70342;SDS011;57767;42.068;24.752;2023-02-13T04:30:31;29.83;;;18.60;;
70342;SDS011;57767;42.068;24.752;2023-02-13T04:31:34;27.50;;;17.58;;
70342;SDS011;57767;42.068;24.752;2023-02-13T04:32:36;27.73;;;17.25;;
70342;SDS011;57767;42.068;24.752;2023-02-13T04:33:38;25.33;;;17.25;;
70342;SDS011;57767;42.068;24.752;2023-02-13T04:34:39;27.05;;;17.77;;
70342;SDS011;57767;42.068;24.752;2023-02-13T04:35:41;29.92;;;18.05;;
70342;SDS011;57767;42.068;24.752;2023-02-13T04:36:43;26.77;;;18.23;;
70342;SDS011;57767;42.068;24.752;2023-02-13T04:37:45;25.08;;;17.02;;
70342;SDS011;57767;42.068;24.752;2023-02-13T04:38:46;26.23;;;17.88;;
70342;SDS011;57767;42.068;24.752;2023-02-13T04:39:48;27.40;;;16.98;;
70342;SDS011;57767;42.068;24.752;2023-02-13T04:40:50;29.77;;;17.75;;
70342;SDS011;57767;42.068;24.752;2023-02-13T04:41:51;27.08;;;18.67;;
70342;SDS011;57767;42.068;24.752;2023-02-13T04:42:53;25.65;;;16.83;;
70342;SDS011;57767;42.068;24.752;2023-02-13T04:43:55;23.05;;;15.95;;
70342;SDS011;57767;42.068;24.752;2023-02-13T04:44:57;40.25;;;24.65;;
70342;SDS011;57767;42.068;24.752;2023-02-13T04:45:59;71.43;;;34.97;;
70342;SDS011;57767;42.068;24.752;2023-02-13T04:47:00;65.90;;;34.50;;
70342;SDS011;57767;42.068;24.752;2023-02-13T04:48:02;63.80;;;34.25;;
70342;SDS011;57767;42.068;24.752;2023-02-13T04:49:04;62.75;;;34.85;;
70342;SDS011;57767;42.068;24.752;2023-02-13T04:50:06;65.72;;;34.80;;
70342;SDS011;57767;42.068;24.752;2023-02-13T04:51:08;64.95;;;35.42;;
70342;SDS011;57767;42.068;24.752;2023-02-13T04:52:10;63.47;;;33.85;;
70342;SDS011;57767;42.068;24.752;2023-02-13T04:53:12;65.55;;;34.33;;
70342;SDS011;57767;42.068;24.752;2023-02-13T04:54:13;59.17;;;32.85;;
70342;SDS011;57767;42.068;24.752;2023-02-13T04:55:15;61.22;;;32.65;;
70342;SDS011;57767;42.068;24.752;2023-02-13T04:56:17;61.42;;;33.60;;
70342;SDS011;57767;42.068;24.752;2023-02-13T04:57:20;63.22;;;33.03;;
70342;SDS011;57767;42.068;24.752;2023-02-13T04:58:22;71.85;;;36.70;;
70342;SDS011;57767;42.068;24.752;2023-02-13T04:59:23;61.25;;;34.13;;
70342;SDS011;57767;42.068;24.752;2023-02-13T05:00:26;60.80;;;34.83;;
70342;SDS011;57767;42.068;24.752;2023-02-13T05:01:29;67.53;;;37.63;;
70342;SDS011;57767;42.068;24.752;2023-02-13T05:02:31;66.55;;;37.92;;
70342;SDS011;57767;42.068;24.752;2023-02-13T05:03:32;65.45;;;36.00;;
70342;SDS011;57767;42.068;24.752;2023-02-13T05:04:34;61.05;;;35.67;;
70342;SDS011;57767;42.068;24.752;2023-02-13T05:05:36;60.47;;;35.20;;
70342;SDS011;57767;42.068;24.752;2023-02-13T05:06:39;62.33;;;36.47;;
70342;SDS011;57767;42.068;24.752;2023-02-13T05:07:41;70.00;;;38.72;;
70342;SDS011;57767;42.068;24.752;2023-02-13T05:08:43;72.32;;;40.95;;
70342;SDS011;57767;42.068;24.752;2023-02-13T05:09:44;70.45;;;39.67;;
70342;SDS011;57767;42.068;24.752;2023-02-13T05:10:47;76.25;;;42.80;;
70342;SDS011;57767;42.068;24.752;2023-02-13T05:11:52;73.72;;;41.85;;
70342;SDS011;57767;42.068;24.752;2023-02-13T05:12:54;73.63;;;41.10;;
70342;SDS011;57767;42.068;24.752;2023-02-13T05:13:56;67.55;;;41.65;;
70342;SDS011;57767;42.068;24.752;2023-02-13T05:14:57;72.95;;;40.55;;
70342;SDS011;57767;42.068;24.752;2023-02-13T05:15:59;69.53;;;38.55;;
70342;SDS011;57767;42.068;24.752;2023-02-13T05:17:01;76.10;;;42.00;;
70342;SDS011;57767;42.068;24.752;2023-02-13T05:18:03;69.93;;;41.30;;
70342;SDS011;57767;42.068;24.752;2023-02-13T05:19:05;77.13;;;41.08;;
70342;SDS011;57767;42.068;24.752;2023-02-13T05:20:07;67.03;;;40.17;;
70342;SDS011;57767;42.068;24.752;2023-02-13T05:21:09;64.40;;;39.58;;
70342;SDS011;57767;42.068;24.752;2023-02-13T05:22:29;58.17;;;37.75;;
70342;SDS011;57767;42.068;24.752;2023-02-13T05:23:49;66.78;;;38.17;;
70342;SDS011;57767;42.068;24.752;2023-02-13T05:24:51;78.53;;;42.67;;
70342;SDS011;57767;42.068;24.752;2023-02-13T05:25:52;69.53;;;40.80;;
70342;SDS011;57767;42.068;24.752;2023-02-13T05:26:54;68.80;;;42.08;;
70342;SDS011;57767;42.068;24.752;2023-02-13T05:27:56;72.07;;;42.20;;
70342;SDS011;57767;42.068;24.752;2023-02-13T05:28:58;69.55;;;39.92;;
70342;SDS011;57767;42.068;24.752;2023-02-13T05:30:18;59.13;;;36.80;;
70342;SDS011;57767;42.068;24.752;2023-02-13T05:31:20;63.67;;;38.00;;
70342;SDS011;57767;42.068;24.752;2023-02-13T05:32:22;60.50;;;38.03;;
70342;SDS011;57767;42.068;24.752;2023-02-13T05:33:24;61.63;;;38.35;;
70342;SDS011;57767;42.068;24.752;2023-02-13T05:34:26;64.80;;;39.42;;
70342;SDS011;57767;42.068;24.752;2023-02-13T05:35:28;63.35;;;37.45;;
70342;SDS011;57767;42.068;24.752;2023-02-13T05:36:30;62.97;;;38.00;;
70342;SDS011;57767;42.068;24.752;2023-02-13T05:37:32;59.58;;;35.55;;
70342;SDS011;57767;42.068;24.752;2023-02-13T05:38:34;56.63;;;35.95;;
70342;SDS011;57767;42.068;24.752;2023-02-13T05:39:35;58.03;;;37.25;;
70342;SDS011;57767;42.068;24.752;2023-02-13T05:40:37;60.40;;;37.63;;
70342;SDS011;57767;42.068;24.752;2023-02-13T05:41:39;57.90;;;35.83;;
70342;SDS011;57767;42.068;24.752;2023-02-13T05:42:41;55.25;;;34.85;;
70342;SDS011;57767;42.068;24.752;2023-02-13T05:43:43;59.17;;;36.95;;
70342;SDS011;57767;42.068;24.752;2023-02-13T05:44:45;59.78;;;36.38;;
70342;SDS011;57767;42.068;24.752;2023-02-13T05:45:47;54.38;;;35.95;;
70342;SDS011;57767;42.068;24.752;2023-02-13T05:46:49;54.45;;;35.35;;
70342;SDS011;57767;42.068;24.752;2023-02-13T05:47:50;62.28;;;34.47;;
70342;SDS011;57767;42.068;24.752;2023-02-13T05:48:52;52.75;;;32.78;;
70342;SDS011;57767;42.068;24.752;2023-02-13T05:49:54;52.50;;;32.53;;
70342;SDS011;57767;42.068;24.752;2023-02-13T05:50:56;50.53;;;31.48;;
70342;SDS011;57767;42.068;24.752;2023-02-13T05:51:58;53.65;;;32.75;;
70342;SDS011;57767;42.068;24.752;2023-02-13T05:52:59;52.00;;;33.40;;
70342;SDS011;57767;42.068;24.752;2023-02-13T05:54:01;50.90;;;33.95;;
70342;SDS011;57767;42.068;24.752;2023-02-13T05:55:03;61.38;;;37.63;;
70342;SDS011;57767;42.068;24.752;2023-02-13T05:56:05;61.08;;;37.88;;
70342;SDS011;57767;42.068;24.752;2023-02-13T05:57:07;65.32;;;38.40;;
70342;SDS011;57767;42.068;24.752;2023-02-13T05:58:09;60.28;;;36.85;;
70342;SDS011;57767;42.068;24.752;2023-02-13T05:59:12;65.78;;;36.15;;
70342;SDS011;57767;42.068;24.752;2023-02-13T06:00:14;59.33;;;38.33;;
70342;SDS011;57767;42.068;24.752;2023-02-13T06:01:16;61.20;;;37.00;;
70342;SDS011;57767;42.068;24.752;2023-02-13T06:02:18;64.03;;;38.05;;
70342;SDS011;57767;42.068;24.752;2023-02-13T06:03:20;58.65;;;37.22;;
70342;SDS011;57767;42.068;24.752;2023-02-13T06:04:22;65.38;;;36.40;;
70342;SDS011;57767;42.068;24.752;2023-02-13T06:05:23;56.78;;;36.60;;
70342;SDS011;57767;42.068;24.752;2023-02-13T06:06:25;50.47;;;32.88;;
70342;SDS011;57767;42.068;24.752;2023-02-13T06:07:27;49.28;;;33.20;;
70342;SDS011;57767;42.068;24.752;2023-02-13T06:08:29;46.72;;;30.60;;
70342;SDS011;57767;42.068;24.752;2023-02-13T06:09:31;51.08;;;32.15;;
70342;SDS011;57767;42.068;24.752;2023-02-13T06:10:33;51.67;;;32.83;;
70342;SDS011;57767;42.068;24.752;2023-02-13T06:11:34;54.42;;;33.00;;
70342;SDS011;57767;42.068;24.752;2023-02-13T06:12:36;53.03;;;35.00;;
70342;SDS011;57767;42.068;24.752;2023-02-13T06:13:38;52.90;;;33.88;;
70342;SDS011;57767;42.068;24.752;2023-02-13T06:14:41;69.75;;;35.67;;
70342;SDS011;57767;42.068;24.752;2023-02-13T06:15:42;56.95;;;32.60;;
70342;SDS011;57767;42.068;24.752;2023-02-13T06:16:44;51.03;;;31.27;;
70342;SDS011;57767;42.068;24.752;2023-02-13T06:17:46;54.67;;;34.13;;
70342;SDS011;57767;42.068;24.752;2023-02-13T06:18:48;53.45;;;33.22;;
70342;SDS011;57767;42.068;24.752;2023-02-13T06:19:49;53.55;;;34.75;;
70342;SDS011;57767;42.068;24.752;2023-02-13T06:20:51;56.67;;;36.42;;
70342;SDS011;57767;42.068;24.752;2023-02-13T06:21:53;58.47;;;35.35;;
70342;SDS011;57767;42.068;24.752;2023-02-13T06:22:54;52.75;;;34.92;;
70342;SDS011;57767;42.068;24.752;2023-02-13T06:23:56;58.90;;;36.45;;
70342;SDS011;57767;42.068;24.752;2023-02-13T06:24:58;59.97;;;36.60;;
70342;SDS011;57767;42.068;24.752;2023-02-13T06:26:03;58.78;;;36.90;;
70342;SDS011;57767;42.068;24.752;2023-02-13T06:27:06;53.53;;;34.35;;
70342;SDS011;57767;42.068;24.752;2023-02-13T06:28:08;56.45;;;34.90;;
70342;SDS011;57767;42.068;24.752;2023-02-13T06:29:09;62.70;;;36.15;;
70342;SDS011;57767;42.068;24.752;2023-02-13T06:30:13;61.15;;;37.05;;
70342;SDS011;57767;42.068;24.752;2023-02-13T06:31:15;65.22;;;37.78;;
70342;SDS011;57767;42.068;24.752;2023-02-13T06:32:17;61.78;;;37.88;;
70342;SDS011;57767;42.068;24.752;2023-02-13T06:33:19;61.75;;;37.10;;
70342;SDS011;57767;42.068;24.752;2023-02-13T06:34:21;60.45;;;37.10;;
70342;SDS011;57767;42.068;24.752;2023-02-13T06:35:22;58.97;;;37.50;;
70342;SDS011;57767;42.068;24.752;2023-02-13T06:36:24;56.67;;;35.40;;
70342;SDS011;57767;42.068;24.752;2023-02-13T06:37:26;48.92;;;31.48;;
70342;SDS011;57767;42.068;24.752;2023-02-13T06:38:28;47.83;;;30.50;;
70342;SDS011;57767;42.068;24.752;2023-02-13T06:39:29;50.35;;;31.83;;
70342;SDS011;57767;42.068;24.752;2023-02-13T06:40:31;46.22;;;30.20;;
70342;SDS011;57767;42.068;24.752;2023-02-13T06:41:33;48.25;;;32.22;;
70342;SDS011;57767;42.068;24.752;2023-02-13T06:42:35;47.35;;;30.45;;
70342;SDS011;57767;42.068;24.752;2023-02-13T06:43:37;50.85;;;31.73;;
70342;SDS011;57767;42.068;24.752;2023-02-13T06:44:41;45.22;;;30.45;;
70342;SDS011;57767;42.068;24.752;2023-02-13T06:45:42;47.25;;;30.02;;
70342;SDS011;57767;42.068;24.752;2023-02-13T06:46:47;51.35;;;30.83;;
70342;SDS011;57767;42.068;24.752;2023-02-13T06:47:48;48.42;;;30.27;;
70342;SDS011;57767;42.068;24.752;2023-02-13T06:48:52;46.55;;;29.92;;
70342;SDS011;57767;42.068;24.752;2023-02-13T06:49:54;45.45;;;29.77;;
70342;SDS011;57767;42.068;24.752;2023-02-13T06:50:56;42.58;;;28.05;;
70342;SDS011;57767;42.068;24.752;2023-02-13T06:51:58;47.30;;;30.90;;
70342;SDS011;57767;42.068;24.752;2023-02-13T06:53:00;52.35;;;32.13;;
70342;SDS011;57767;42.068;24.752;2023-02-13T06:54:02;49.95;;;31.38;;
70342;SDS011;57767;42.068;24.752;2023-02-13T06:55:04;43.83;;;29.70;;
70342;SDS011;57767;42.068;24.752;2023-02-13T06:56:06;45.55;;;30.48;;
70342;SDS011;57767;42.068;24.752;2023-02-13T06:57:08;43.75;;;29.42;;
70342;SDS011;57767;42.068;24.752;2023-02-13T06:58:10;48.38;;;29.15;;
70342;SDS011;57767;42.068;24.752;2023-02-13T06:59:11;44.50;;;30.35;;
70342;SDS011;57767;42.068;24.752;2023-02-13T07:00:14;48.85;;;30.58;;
70342;SDS011;57767;42.068;24.752;2023-02-13T07:01:17;44.70;;;30.23;;
70342;SDS011;57767;42.068;24.752;2023-02-13T07:02:19;46.13;;;29.95;;
70342;SDS011;57767;42.068;24.752;2023-02-13T07:03:20;47.90;;;29.63;;
70342;SDS011;57767;42.068;24.752;2023-02-13T07:04:22;46.67;;;29.77;;
70342;SDS011;57767;42.068;24.752;2023-02-13T07:05:24;44.67;;;29.65;;
70342;SDS011;57767;42.068;24.752;2023-02-13T07:06:25;41.75;;;29.80;;